Time;durP1;ratioP1;P1;durP2;ratioP2;P2;SDS_P1;SDS_P2;PMS_P1;PMS_P2;Temp;Humidity;BMP_temperature;BMP_pressure;BME280_temperature;BME280_humidity;BME280_pressure;Samples;Min_cycle;Max_cycle;Signal;HPM_P1;HPM_P2
2022/03/06 00:01:53;;;;;;;8.43;6.63;;;1.90;99.90;;;;;;5075904;28;20211;-78
2022/03/06 00:04:18;;;;;;;8.63;6.93;;;1.90;99.90;;;;;;5093458;28;20182;-76
2022/03/06 00:06:44;;;;;;;9.90;6.90;;;2.00;99.90;;;;;;5061159;28;20202;-75
2022/03/06 00:09:09;;;;;;;8.07;6.77;;;1.90;99.90;;;;;;5051459;28;20179;-75
2022/03/06 00:11:35;;;;;;;7.93;6.50;;;1.90;99.90;;;;;;5050076;28;20309;-75
2022/03/06 00:14:01;;;;;;;10.43;6.50;;;1.90;99.90;;;;;;5065907;28;20190;-74
2022/03/06 00:16:26;;;;;;;12.53;7.10;;;1.90;99.90;;;;;;5056294;28;20245;-75
2022/03/06 00:18:52;;;;;;;11.57;6.90;;;1.90;99.90;;;;;;5058021;28;20213;-77
2022/03/06 00:21:18;;;;;;;8.90;6.93;;;1.80;99.90;;;;;;5063311;28;20202;-75
2022/03/06 00:23:43;;;;;;;9.33;7.37;;;1.90;99.90;;;;;;5091139;28;20201;-77
2022/03/06 00:26:09;;;;;;;8.83;6.50;;;1.90;99.90;;;;;;5060623;28;20178;-76
2022/03/06 00:28:35;;;;;;;9.70;7.17;;;1.90;99.90;;;;;;5077237;28;20194;-75
2022/03/06 00:31:01;;;;;;;8.50;6.87;;;1.90;99.90;;;;;;5073720;28;20182;-76
2022/03/06 00:33:27;;;;;;;9.63;7.27;;;1.80;99.90;;;;;;5055802;28;20179;-75
2022/03/06 00:35:53;;;;;;;12.53;8.03;;;1.80;99.90;;;;;;5055131;28;20541;-75
2022/03/06 00:38:19;;;;;;;11.87;7.23;;;1.80;99.90;;;;;;5062320;28;20206;-75
2022/03/06 00:40:45;;;;;;;9.63;6.70;;;1.90;99.90;;;;;;5059221;28;20202;-77
2022/03/06 00:43:11;;;;;;;10.30;7.10;;;1.80;99.90;;;;;;5052833;28;20184;-77
2022/03/06 00:45:37;;;;;;;11.23;6.87;;;1.80;99.90;;;;;;5060424;28;20216;-77
2022/03/06 00:48:03;;;;;;;8.77;6.77;;;1.90;99.90;;;;;;5070574;28;20236;-75
2022/03/06 00:50:29;;;;;;;10.83;7.33;;;1.90;99.90;;;;;;5049399;28;20272;-75
2022/03/06 00:52:57;;;;;;;8.43;6.83;;;1.90;99.90;;;;;;5057614;28;20208;-74
2022/03/06 00:55:22;;;;;;;11.77;7.60;;;1.90;99.90;;;;;;5062789;28;20642;-75
2022/03/06 00:57:48;;;;;;;9.30;7.20;;;1.80;99.90;;;;;;5058300;28;20187;-76
2022/03/06 01:00:15;;;;;;;9.60;6.90;;;1.80;99.90;;;;;;5062190;28;20225;-75
2022/03/06 01:02:41;;;;;;;14.13;7.37;;;1.80;99.90;;;;;;5071870;28;20206;-76
2022/03/06 01:05:07;;;;;;;10.17;7.20;;;1.70;99.90;;;;;;5064503;28;20175;-75
2022/03/06 01:07:32;;;;;;;12.53;7.60;;;1.80;99.90;;;;;;5064378;28;20186;-76
2022/03/06 01:09:58;;;;;;;11.67;7.10;;;1.80;99.90;;;;;;5065147;28;20537;-76
2022/03/06 01:12:24;;;;;;;13.57;8.00;;;1.70;99.90;;;;;;5068793;28;20181;-75
2022/03/06 01:14:50;;;;;;;10.97;7.57;;;1.70;99.90;;;;;;5075391;28;20170;-76
2022/03/06 01:17:17;;;;;;;10.50;7.03;;;1.70;99.90;;;;;;5057752;28;20186;-75
2022/03/06 01:19:42;;;;;;;11.17;7.27;;;1.80;99.90;;;;;;5056303;28;20171;-74
2022/03/06 01:22:08;;;;;;;10.70;7.33;;;1.80;99.90;;;;;;5056344;28;20232;-76
2022/03/06 01:24:34;;;;;;;9.93;7.20;;;1.70;99.90;;;;;;5068574;28;20179;-75
2022/03/06 01:26:59;;;;;;;10.20;7.43;;;1.70;99.90;;;;;;5072492;28;20212;-75
2022/03/06 01:29:25;;;;;;;11.20;8.03;;;1.70;99.90;;;;;;5063809;28;20225;-77
2022/03/06 01:31:50;;;;;;;9.90;7.30;;;1.70;99.90;;;;;;5067868;28;20190;-75
2022/03/06 01:34:16;;;;;;;13.53;7.27;;;1.60;99.90;;;;;;5066537;28;20189;-77
2022/03/06 01:36:42;;;;;;;10.37;7.43;;;1.60;99.90;;;;;;5074491;28;20196;-75
2022/03/06 01:39:07;;;;;;;10.53;7.40;;;1.60;99.90;;;;;;5064490;28;20307;-76
2022/03/06 01:41:34;;;;;;;11.80;7.23;;;1.60;99.90;;;;;;5062911;28;20190;-75
2022/03/06 01:44:00;;;;;;;14.20;7.60;;;1.50;99.90;;;;;;5080893;28;20195;-76
2022/03/06 01:46:26;;;;;;;9.80;7.70;;;1.50;99.90;;;;;;5064680;28;20179;-76
2022/03/06 01:48:51;;;;;;;11.77;7.70;;;1.50;99.90;;;;;;5056918;28;20202;-76
2022/03/06 01:51:17;;;;;;;10.23;7.70;;;1.40;99.90;;;;;;5051806;28;20190;-76
2022/03/06 01:53:43;;;;;;;9.20;6.93;;;1.50;99.90;;;;;;5068149;28;20197;-75
2022/03/06 01:56:11;;;;;;;12.27;7.70;;;1.50;99.90;;;;;;5066780;28;20194;-75
2022/03/06 01:58:37;;;;;;;11.50;7.97;;;1.50;99.90;;;;;;5057537;28;20194;-75
2022/03/06 02:01:03;;;;;;;10.37;7.43;;;1.50;99.90;;;;;;5089753;28;20206;-77
2022/03/06 02:03:28;;;;;;;10.20;7.70;;;1.40;99.90;;;;;;5073887;28;20189;-75
2022/03/06 02:05:54;;;;;;;13.00;8.33;;;1.40;99.90;;;;;;5055246;28;20213;-74
2022/03/06 02:08:20;;;;;;;10.87;7.33;;;1.40;99.90;;;;;;5058320;28;20198;-75
2022/03/06 02:10:48;;;;;;;12.17;7.27;;;1.40;99.90;;;;;;5075337;28;20175;-74
2022/03/06 02:13:14;;;;;;;10.70;7.90;;;1.40;99.90;;;;;;5061595;28;20171;-75
2022/03/06 02:15:40;;;;;;;10.73;7.83;;;1.30;99.90;;;;;;5058693;28;20228;-75
2022/03/06 02:18:05;;;;;;;9.93;7.60;;;1.30;99.90;;;;;;5056760;28;20203;-76
2022/03/06 02:20:31;;;;;;;9.93;7.47;;;1.30;99.90;;;;;;5062717;28;20175;-75
2022/03/06 02:22:58;;;;;;;12.73;8.50;;;1.30;99.90;;;;;;5043508;28;20562;-76
2022/03/06 02:25:32;;;;;;;10.83;7.90;;;1.30;99.90;;;;;;5048619;28;20175;-77
2022/03/06 02:28:00;;;;;;;10.10;7.30;;;1.30;99.90;;;;;;5071570;28;20197;-75
2022/03/06 02:30:29;;;;;;;12.13;7.80;;;1.20;99.90;;;;;;5056117;28;20258;-77
2022/03/06 02:32:57;;;;;;;11.37;7.47;;;1.30;99.90;;;;;;5043284;28;20183;-75
2022/03/06 02:35:25;;;;;;;11.70;7.70;;;1.30;99.90;;;;;;5050497;28;20176;-77
2022/03/06 02:37:51;;;;;;;16.83;9.00;;;1.20;99.90;;;;;;5054569;28;20674;-77
2022/03/06 02:40:18;;;;;;;8.83;7.10;;;1.20;99.90;;;;;;5049367;28;20182;-76
2022/03/06 02:42:46;;;;;;;12.30;7.70;;;1.20;99.90;;;;;;5053263;28;20198;-76
2022/03/06 02:45:14;;;;;;;10.07;8.07;;;1.20;99.90;;;;;;5052367;28;20183;-76
2022/03/06 02:47:41;;;;;;;10.53;7.63;;;1.20;99.90;;;;;;5056764;28;20197;-75
2022/03/06 02:50:10;;;;;;;9.67;7.50;;;1.20;99.90;;;;;;5054051;28;20178;-75
2022/03/06 02:52:37;;;;;;;12.07;8.17;;;1.20;99.90;;;;;;5048875;28;20182;-75
2022/03/06 02:55:04;;;;;;;11.60;7.93;;;1.20;99.90;;;;;;5045347;28;20181;-75
2022/03/06 02:57:30;;;;;;;13.07;7.70;;;1.10;99.90;;;;;;5054349;28;20190;-76
2022/03/06 02:59:55;;;;;;;10.93;7.60;;;1.10;99.90;;;;;;5064666;28;20182;-75
2022/03/06 03:02:21;;;;;;;11.10;7.50;;;1.10;99.90;;;;;;5087728;28;20229;-75
2022/03/06 03:04:47;;;;;;;12.43;7.90;;;1.10;99.90;;;;;;5067140;28;20185;-75
2022/03/06 03:07:12;;;;;;;11.23;8.17;;;1.10;99.90;;;;;;5039126;28;20188;-75
2022/03/06 03:09:38;;;;;;;10.87;8.00;;;1.10;99.90;;;;;;5040521;28;20602;-75
2022/03/06 03:12:04;;;;;;;12.93;7.40;;;1.00;99.90;;;;;;5039729;28;20198;-77
2022/03/06 03:14:32;;;;;;;11.47;7.43;;;1.00;99.90;;;;;;5048159;28;20527;-75
2022/03/06 03:17:01;;;;;;;11.63;8.60;;;1.10;99.90;;;;;;5053707;28;20288;-76
2022/03/06 03:19:27;;;;;;;13.00;7.23;;;1.00;99.90;;;;;;5073505;28;20186;-75
2022/03/06 03:21:53;;;;;;;11.17;7.90;;;1.10;99.90;;;;;;5055164;28;20194;-75
2022/03/06 03:24:19;;;;;;;11.50;8.37;;;1.10;99.90;;;;;;5039578;28;20317;-75
2022/03/06 03:26:45;;;;;;;10.17;7.80;;;1.10;99.90;;;;;;5058361;28;20243;-75
2022/03/06 03:29:10;;;;;;;11.10;7.63;;;1.10;99.90;;;;;;5055396;28;20184;-74
2022/03/06 03:31:36;;;;;;;11.57;7.43;;;1.10;99.90;;;;;;5061123;28;20185;-75
2022/03/06 03:34:02;;;;;;;9.37;7.60;;;1.10;99.90;;;;;;5053904;28;20175;-75
2022/03/06 03:36:28;;;;;;;12.50;8.00;;;1.10;99.90;;;;;;5051506;28;20179;-77
2022/03/06 03:38:54;;;;;;;11.47;7.43;;;1.10;99.90;;;;;;5067200;28;20437;-75
2022/03/06 03:41:22;;;;;;;11.07;7.33;;;1.00;99.90;;;;;;5064583;28;20213;-74
2022/03/06 03:43:47;;;;;;;12.40;8.47;;;1.00;99.90;;;;;;5057940;28;20266;-76
2022/03/06 03:46:13;;;;;;;9.17;6.83;;;1.00;99.90;;;;;;5056527;28;20259;-75
2022/03/06 03:48:39;;;;;;;11.30;7.50;;;1.00;99.90;;;;;;5045702;28;20224;-76
2022/03/06 03:51:04;;;;;;;10.20;7.37;;;0.90;99.90;;;;;;5076830;28;20190;-75
2022/03/06 03:53:30;;;;;;;10.90;7.53;;;0.90;99.90;;;;;;5082264;28;20233;-75
2022/03/06 03:55:55;;;;;;;12.40;7.93;;;0.90;99.90;;;;;;5057002;28;20178;-75
2022/03/06 03:58:21;;;;;;;11.37;7.13;;;0.90;99.90;;;;;;5061905;28;20203;-77
2022/03/06 04:00:55;;;;;;;11.20;7.77;;;0.90;99.90;;;;;;5053232;28;20204;-77
2022/03/06 04:03:23;;;;;;;12.27;7.17;;;0.80;99.90;;;;;;5050743;28;20202;-75
2022/03/06 04:05:49;;;;;;;13.73;7.67;;;0.80;99.90;;;;;;5053719;28;20171;-74
2022/03/06 04:08:15;;;;;;;13.77;8.33;;;0.80;99.90;;;;;;5065631;28;20202;-75
2022/03/06 04:10:41;;;;;;;10.30;7.43;;;0.80;99.90;;;;;;5046753;28;20548;-75
2022/03/06 04:13:07;;;;;;;11.30;7.80;;;0.80;99.90;;;;;;5058436;28;20182;-74
2022/03/06 04:15:33;;;;;;;10.40;7.33;;;0.70;99.90;;;;;;5068029;28;20193;-75
2022/03/06 04:17:59;;;;;;;12.13;7.70;;;0.70;99.90;;;;;;5070315;28;20202;-75
2022/03/06 04:20:24;;;;;;;12.47;7.20;;;0.70;99.90;;;;;;5035138;28;20180;-77
2022/03/06 04:22:50;;;;;;;11.03;7.93;;;0.70;99.90;;;;;;5076359;28;20210;-76
2022/03/06 04:25:16;;;;;;;8.27;6.43;;;0.80;99.90;;;;;;5039937;28;20195;-75
2022/03/06 04:27:42;;;;;;;10.47;7.27;;;0.70;99.90;;;;;;5059932;28;20714;-76
2022/03/06 04:30:09;;;;;;;8.10;6.27;;;0.70;99.90;;;;;;5049124;28;20258;-74
2022/03/06 04:32:34;;;;;;;9.03;6.60;;;0.80;99.90;;;;;;5052384;28;20217;-77
2022/03/06 04:35:00;;;;;;;8.93;6.43;;;0.80;99.90;;;;;;5043554;28;20221;-74
2022/03/06 04:37:26;;;;;;;10.67;6.67;;;0.80;99.90;;;;;;5051736;28;20202;-76
2022/03/06 04:39:51;;;;;;;9.53;6.17;;;0.80;99.90;;;;;;5044706;28;20185;-75
2022/03/06 04:42:17;;;;;;;8.93;6.00;;;0.80;99.90;;;;;;5046238;28;20660;-75
2022/03/06 04:44:43;;;;;;;10.00;6.60;;;0.80;99.90;;;;;;5049447;28;20197;-77
2022/03/06 04:47:08;;;;;;;8.80;5.67;;;0.80;99.90;;;;;;5063691;28;20194;-77
2022/03/06 04:49:34;;;;;;;8.70;5.77;;;0.90;99.90;;;;;;5054405;28;20197;-75
2022/03/06 04:52:00;;;;;;;7.97;5.60;;;0.80;99.90;;;;;;5054432;28;20179;-76
2022/03/06 04:54:25;;;;;;;8.87;5.53;;;0.80;99.90;;;;;;5046187;28;20179;-75
2022/03/06 04:56:51;;;;;;;7.60;5.50;;;0.80;99.90;;;;;;5055488;28;20189;-76
2022/03/06 04:59:17;;;;;;;8.23;5.90;;;0.80;99.90;;;;;;5068434;28;20178;-75
2022/03/06 05:01:43;;;;;;;8.63;5.53;;;0.80;99.90;;;;;;5077810;28;20207;-75
2022/03/06 05:04:09;;;;;;;10.77;5.60;;;0.70;99.90;;;;;;5053714;28;20634;-75
2022/03/06 05:06:35;;;;;;;7.13;5.40;;;0.70;99.90;;;;;;5056405;28;20262;-75
2022/03/06 05:09:01;;;;;;;10.57;5.27;;;0.70;99.90;;;;;;5060131;28;20278;-75
2022/03/06 05:11:26;;;;;;;10.07;5.37;;;0.70;99.90;;;;;;5048528;28;20197;-77
2022/03/06 05:13:52;;;;;;;8.47;4.93;;;0.70;99.90;;;;;;5039698;28;20187;-75
2022/03/06 05:16:18;;;;;;;7.53;5.00;;;0.70;99.90;;;;;;5051689;28;20171;-76
2022/03/06 05:18:44;;;;;;;7.97;5.03;;;0.70;99.90;;;;;;5054503;28;20178;-75
2022/03/06 05:21:09;;;;;;;7.80;5.10;;;0.70;99.90;;;;;;5049973;28;20218;-75
2022/03/06 05:23:35;;;;;;;12.00;5.17;;;0.70;99.90;;;;;;5056249;28;20277;-75
2022/03/06 05:26:01;;;;;;;10.07;5.00;;;0.70;99.90;;;;;;5054279;28;20276;-75
2022/03/06 05:28:27;;;;;;;10.30;5.20;;;0.70;99.90;;;;;;5061479;28;20222;-75
2022/03/06 05:30:53;;;;;;;6.90;4.93;;;0.70;99.90;;;;;;5067690;28;20171;-75
2022/03/06 05:33:19;;;;;;;7.20;5.07;;;0.70;99.90;;;;;;5071814;28;20206;-75
2022/03/06 05:35:46;;;;;;;6.13;4.67;;;0.70;99.90;;;;;;5048628;28;20190;-75
2022/03/06 05:38:12;;;;;;;7.20;5.03;;;0.70;99.90;;;;;;5037091;28;20216;-75
2022/03/06 05:40:37;;;;;;;8.83;5.17;;;0.80;99.90;;;;;;5071324;28;20561;-75
2022/03/06 05:43:04;;;;;;;6.23;4.80;;;0.80;99.90;;;;;;5073736;28;20171;-74
2022/03/06 05:45:30;;;;;;;5.97;4.20;;;0.70;99.90;;;;;;5062763;28;20189;-76
2022/03/06 05:47:55;;;;;;;12.63;4.53;;;0.70;99.90;;;;;;5067745;28;20202;-74
2022/03/06 05:50:21;;;;;;;6.23;4.60;;;0.70;99.90;;;;;;5055712;28;20270;-75
2022/03/06 05:52:48;;;;;;;8.00;4.67;;;0.70;99.90;;;;;;5063572;28;20207;-75
2022/03/06 05:55:14;;;;;;;6.40;3.90;;;0.70;99.90;;;;;;5079732;28;20179;-75
2022/03/06 05:57:40;;;;;;;6.37;4.13;;;0.70;99.90;;;;;;5070898;28;20209;-75
2022/03/06 06:00:08;;;;;;;7.40;4.17;;;0.70;99.90;;;;;;5068254;28;20205;-76
2022/03/06 06:02:38;;;;;;;6.30;4.03;;;0.70;99.90;;;;;;5058421;28;20209;-77
2022/03/06 06:05:09;;;;;;;6.63;3.80;;;0.70;99.90;;;;;;5055254;28;20174;-75
2022/03/06 06:07:35;;;;;;;7.50;4.40;;;0.70;99.90;;;;;;5054403;28;20207;-76
2022/03/06 06:10:01;;;;;;;4.87;3.73;;;0.70;99.90;;;;;;5073933;28;20209;-75
2022/03/06 06:12:27;;;;;;;8.57;4.27;;;0.70;99.90;;;;;;5065132;28;20216;-75
2022/03/06 06:14:53;;;;;;;5.20;3.90;;;0.70;99.90;;;;;;5078206;28;20187;-77
2022/03/06 06:17:18;;;;;;;7.57;3.77;;;0.70;99.90;;;;;;5059228;28;20605;-76
2022/03/06 06:19:44;;;;;;;5.27;3.90;;;0.80;99.90;;;;;;5051891;28;20193;-77
2022/03/06 06:22:10;;;;;;;7.17;4.47;;;0.80;99.90;;;;;;5066954;28;20205;-77
2022/03/06 06:24:36;;;;;;;7.40;3.93;;;0.70;99.90;;;;;;5060718;28;20205;-77
2022/03/06 06:27:02;;;;;;;7.90;3.73;;;0.70;99.90;;;;;;5092238;28;20206;-76
2022/03/06 06:29:28;;;;;;;5.70;3.73;;;0.70;99.90;;;;;;5070623;28;20177;-77
2022/03/06 06:31:54;;;;;;;5.63;3.80;;;0.70;99.90;;;;;;5050285;28;20640;-76
2022/03/06 06:34:20;;;;;;;4.67;3.50;;;0.70;99.90;;;;;;5055490;28;20238;-77
2022/03/06 06:36:46;;;;;;;7.03;3.70;;;0.70;99.90;;;;;;5054791;28;20209;-76
2022/03/06 06:39:12;;;;;;;6.63;3.87;;;0.70;99.90;;;;;;5050003;28;20179;-77
2022/03/06 06:41:39;;;;;;;8.57;3.90;;;0.60;99.90;;;;;;5068427;28;20257;-76
2022/03/06 06:44:06;;;;;;;6.67;3.30;;;0.60;99.90;;;;;;5063547;28;20211;-77
2022/03/06 06:46:31;;;;;;;4.80;3.60;;;0.70;99.90;;;;;;5074209;28;20171;-76
2022/03/06 06:48:57;;;;;;;5.70;3.37;;;0.70;99.90;;;;;;5054431;28;20179;-78
2022/03/06 06:51:23;;;;;;;4.57;3.07;;;0.60;99.90;;;;;;5063493;28;20192;-77
2022/03/06 06:53:48;;;;;;;5.27;3.67;;;0.60;99.90;;;;;;5081997;28;20262;-76
2022/03/06 06:56:14;;;;;;;4.73;3.13;;;0.60;99.90;;;;;;5061690;28;20193;-77
2022/03/06 06:58:40;;;;;;;6.67;3.37;;;0.60;99.90;;;;;;5075264;28;20208;-77
2022/03/06 07:01:06;;;;;;;5.77;3.50;;;0.60;99.90;;;;;;5055572;28;20224;-77
2022/03/06 07:03:31;;;;;;;5.30;3.80;;;0.60;99.90;;;;;;5058751;28;20191;-78
2022/03/06 07:05:58;;;;;;;6.53;3.63;;;0.60;99.90;;;;;;5083241;28;20200;-76
2022/03/06 07:08:24;;;;;;;4.93;3.37;;;0.60;99.90;;;;;;5076825;28;20265;-77
2022/03/06 07:10:50;;;;;;;7.50;3.40;;;0.60;99.90;;;;;;5068856;28;20197;-76
2022/03/06 07:13:16;;;;;;;7.33;3.40;;;0.60;99.90;;;;;;5061780;28;20214;-77
2022/03/06 07:15:41;;;;;;;3.87;2.90;;;0.60;99.90;;;;;;5062096;28;20175;-77
2022/03/06 07:18:07;;;;;;;6.50;3.37;;;0.60;99.90;;;;;;5058274;28;20256;-77
2022/03/06 07:20:33;;;;;;;5.97;3.87;;;0.70;99.90;;;;;;5067327;28;20246;-78
2022/03/06 07:22:58;;;;;;;5.50;3.10;;;0.70;99.90;;;;;;5064571;28;20201;-76
2022/03/06 07:25:24;;;;;;;5.47;3.77;;;0.70;99.90;;;;;;5067927;28;20177;-76
2022/03/06 07:27:50;;;;;;;6.00;3.43;;;0.80;99.90;;;;;;5063843;28;20241;-76
2022/03/06 07:30:16;;;;;;;7.73;4.17;;;0.70;99.90;;;;;;5052864;28;20217;-77
2022/03/06 07:32:47;;;;;;;5.00;3.67;;;0.70;99.90;;;;;;5069564;28;20255;-76
2022/03/06 07:35:14;;;;;;;6.77;3.77;;;0.80;99.90;;;;;;5069397;28;20253;-77
2022/03/06 07:37:40;;;;;;;4.77;3.40;;;0.80;99.90;;;;;;5069703;28;20197;-76
2022/03/06 07:40:07;;;;;;;4.77;3.20;;;0.80;99.90;;;;;;5070160;28;20281;-77
2022/03/06 07:42:33;;;;;;;4.83;3.37;;;0.80;99.90;;;;;;5069880;28;20209;-76
2022/03/06 07:44:58;;;;;;;3.73;3.10;;;0.90;99.90;;;;;;5069888;28;20178;-76
2022/03/06 07:47:24;;;;;;;6.03;3.53;;;0.90;99.90;;;;;;5069881;28;20710;-76
2022/03/06 07:49:49;;;;;;;3.87;3.20;;;0.90;99.90;;;;;;5053359;28;20256;-76
2022/03/06 07:52:15;;;;;;;7.23;3.40;;;0.90;99.90;;;;;;5053247;28;20178;-76
2022/03/06 07:54:41;;;;;;;4.73;3.20;;;1.00;99.90;;;;;;5053234;28;20188;-75
2022/03/06 07:57:06;;;;;;;8.37;3.90;;;1.00;99.90;;;;;;5062190;28;20372;-77
2022/03/06 07:59:32;;;;;;;7.63;2.80;;;1.00;99.90;;;;;;5066798;28;20171;-77
2022/03/06 08:01:57;;;;;;;5.43;3.30;;;1.00;99.90;;;;;;5053467;28;20213;-75
2022/03/06 08:04:23;;;;;;;6.90;3.40;;;0.90;99.90;;;;;;5053366;28;20171;-76
2022/03/06 08:06:49;;;;;;;5.40;3.20;;;1.00;99.90;;;;;;5053257;28;20198;-76
2022/03/06 08:09:15;;;;;;;4.93;3.10;;;1.00;99.90;;;;;;5053536;28;20186;-76
2022/03/06 08:11:41;;;;;;;4.13;2.90;;;1.00;99.90;;;;;;5053235;28;20179;-75
2022/03/06 08:14:07;;;;;;;5.10;3.10;;;1.00;99.90;;;;;;5053114;28;20223;-77
2022/03/06 08:16:33;;;;;;;5.70;3.37;;;1.10;99.90;;;;;;5053270;28;20177;-76
2022/03/06 08:18:58;;;;;;;5.33;3.30;;;1.10;99.90;;;;;;5071082;28;20183;-77
2022/03/06 08:21:24;;;;;;;4.60;3.03;;;1.10;99.90;;;;;;5052519;28;20233;-76
2022/03/06 08:23:51;;;;;;;6.07;2.97;;;1.20;99.90;;;;;;5053836;28;20181;-77
2022/03/06 08:26:17;;;;;;;4.93;3.00;;;1.30;99.90;;;;;;5079370;28;20250;-76
2022/03/06 08:28:42;;;;;;;5.33;3.17;;;1.20;99.90;;;;;;5059155;28;20285;-76
2022/03/06 08:31:09;;;;;;;5.93;2.93;;;1.30;99.90;;;;;;5053771;28;20175;-76
2022/03/06 08:33:35;;;;;;;4.10;2.80;;;1.30;99.90;;;;;;5053001;28;20178;-76
2022/03/06 08:36:00;;;;;;;3.63;2.50;;;1.30;99.90;;;;;;5053107;28;20228;-75
2022/03/06 08:38:26;;;;;;;4.77;2.60;;;1.40;99.90;;;;;;5072311;28;20225;-75
2022/03/06 08:40:51;;;;;;;4.13;3.03;;;1.40;99.90;;;;;;5074266;28;20179;-76
2022/03/06 08:43:17;;;;;;;4.00;2.73;;;1.40;99.90;;;;;;5056580;28;20254;-75
2022/03/06 08:45:43;;;;;;;6.63;3.03;;;1.40;99.90;;;;;;5057643;28;20574;-75
2022/03/06 08:48:08;;;;;;;6.17;2.97;;;1.50;99.90;;;;;;5056544;28;20202;-76
2022/03/06 08:50:34;;;;;;;5.60;2.90;;;1.50;99.90;;;;;;5054003;28;20202;-75
2022/03/06 08:53:00;;;;;;;5.50;2.37;;;1.50;99.90;;;;;;5037238;28;20176;-76
2022/03/06 08:55:25;;;;;;;2.87;2.50;;;1.70;99.90;;;;;;5044580;28;20205;-75
2022/03/06 08:57:51;;;;;;;4.93;2.40;;;1.70;99.90;;;;;;5067894;28;20194;-75
2022/03/06 09:00:17;;;;;;;4.10;2.23;;;1.70;99.90;;;;;;5076519;28;20247;-75
2022/03/06 09:02:42;;;;;;;5.70;2.33;;;1.80;99.90;;;;;;5066288;28;20208;-74
2022/03/06 09:05:08;;;;;;;6.13;2.37;;;1.80;99.90;;;;;;5073995;28;20714;-74
2022/03/06 09:07:34;;;;;;;5.13;2.30;;;1.90;99.90;;;;;;5056355;28;20199;-74
2022/03/06 09:09:59;;;;;;;3.87;2.27;;;1.90;99.90;;;;;;5056235;28;20232;-74
2022/03/06 09:12:26;;;;;;;4.80;2.20;;;2.00;99.90;;;;;;5056173;28;20183;-73
2022/03/06 09:14:55;;;;;;;5.03;2.10;;;2.00;99.90;;;;;;5073653;28;20178;-74
2022/03/06 09:17:21;;;;;;;3.57;1.93;;;2.00;99.90;;;;;;5055827;28;20245;-75
2022/03/06 09:19:47;;;;;;;3.03;1.77;;;2.00;99.90;;;;;;5055853;28;20206;-74
2022/03/06 09:22:12;;;;;;;4.07;2.20;;;2.10;99.90;;;;;;5056025;28;20230;-74
2022/03/06 09:24:38;;;;;;;4.40;2.57;;;2.10;99.90;;;;;;5055974;28;20278;-74
2022/03/06 09:27:04;;;;;;;2.80;2.30;;;2.10;99.90;;;;;;5089724;28;20218;-74
2022/03/06 09:29:30;;;;;;;3.03;2.10;;;2.10;99.90;;;;;;5054987;28;20178;-73
2022/03/06 09:31:55;;;;;;;3.20;2.00;;;2.20;99.90;;;;;;5055361;28;20191;-74
2022/03/06 09:34:21;;;;;;;2.13;1.77;;;2.20;99.90;;;;;;5070997;28;20211;-74
2022/03/06 09:36:47;;;;;;;2.63;1.77;;;2.30;99.90;;;;;;5056309;28;20195;-73
2022/03/06 09:39:13;;;;;;;4.83;1.93;;;2.30;99.90;;;;;;5074170;28;20175;-74
2022/03/06 09:41:39;;;;;;;2.73;1.90;;;2.30;99.90;;;;;;5056338;28;20289;-73
2022/03/06 09:44:07;;;;;;;2.73;1.87;;;2.30;99.90;;;;;;5055980;28;20548;-75
2022/03/06 09:46:34;;;;;;;2.57;1.73;;;2.30;99.90;;;;;;5055781;28;20179;-73
2022/03/06 09:49:02;;;;;;;2.47;1.83;;;2.30;99.90;;;;;;5055746;28;20308;-74
2022/03/06 09:51:38;;;;;;;5.73;1.70;;;2.30;99.90;;;;;;5051924;28;20266;-74
2022/03/06 09:54:04;;;;;;;6.87;2.10;;;2.40;99.90;;;;;;5072391;28;20203;-74
2022/03/06 09:56:29;;;;;;;3.33;2.00;;;2.40;99.90;;;;;;5064463;28;20183;-73
2022/03/06 09:58:55;;;;;;;5.43;1.60;;;2.40;99.90;;;;;;5069556;28;20189;-74
2022/03/06 10:01:20;;;;;;;3.63;1.53;;;2.50;99.90;;;;;;5055788;28;20257;-74
2022/03/06 10:03:46;;;;;;;2.53;1.83;;;2.50;99.90;;;;;;5055704;28;20175;-74
2022/03/06 10:06:12;;;;;;;4.23;1.70;;;2.60;99.90;;;;;;5073855;28;20179;-73
2022/03/06 10:08:37;;;;;;;2.80;1.70;;;2.60;99.90;;;;;;5073482;28;20282;-74
2022/03/06 10:11:08;;;;;;;4.10;2.10;;;2.60;99.90;;;;;;5073898;28;20188;-74
2022/03/06 10:13:42;;;;;;;3.07;1.67;;;2.60;99.90;;;;;;5055728;28;20186;-73
2022/03/06 10:16:11;;;;;;;2.40;1.80;;;2.60;99.90;;;;;;5054854;28;20270;-74
2022/03/06 10:18:54;;;;;;;3.97;2.50;;;2.70;99.90;;;;;;5055120;28;20294;-74
2022/03/06 10:21:28;;;;;;;2.20;1.70;;;2.80;99.90;;;;;;5055470;28;20207;-74
2022/03/06 10:24:08;;;;;;;2.87;1.73;;;2.80;99.90;;;;;;5072659;28;20185;-74
2022/03/06 10:26:35;;;;;;;3.07;1.80;;;2.90;99.90;;;;;;5062936;28;20176;-74
2022/03/06 10:29:02;;;;;;;4.57;2.37;;;3.00;99.90;;;;;;5078469;28;20182;-74
2022/03/06 10:31:30;;;;;;;3.57;1.67;;;3.00;99.90;;;;;;5055527;28;20179;-73
2022/03/06 10:34:14;;;;;;;3.93;1.90;;;3.00;99.90;;;;;;5072847;28;20176;-74
2022/03/06 10:36:47;;;;;;;4.10;2.00;;;3.00;99.90;;;;;;5054067;28;20203;-74
2022/03/06 10:39:19;;;;;;;3.63;1.90;;;3.00;99.90;;;;;;5053949;28;20190;-73
2022/03/06 10:41:49;;;;;;;2.20;1.80;;;3.00;99.90;;;;;;5054672;28;20210;-73
2022/03/06 10:44:17;;;;;;;2.63;2.10;;;3.10;99.90;;;;;;5054841;28;20173;-74
2022/03/06 10:46:56;;;;;;;4.80;2.10;;;3.10;99.90;;;;;;5072557;28;20254;-73
2022/03/06 10:49:21;;;;;;;3.73;1.87;;;3.20;99.90;;;;;;5054784;28;20174;-74
2022/03/06 10:51:50;;;;;;;4.57;2.30;;;3.30;99.90;;;;;;5072619;28;20175;-74
2022/03/06 10:54:16;;;;;;;3.63;1.93;;;3.20;99.90;;;;;;5054286;28;20188;-73
2022/03/06 10:56:49;;;;;;;3.40;2.27;;;3.30;99.90;;;;;;5061345;28;20572;-73
2022/03/06 10:59:18;;;;;;;4.10;2.83;;;3.30;99.90;;;;;;5086576;28;20165;-74
2022/03/06 11:01:46;;;;;;;5.67;2.70;;;3.30;99.90;;;;;;5071529;28;20205;-74
2022/03/06 11:04:13;;;;;;;4.33;2.93;;;3.30;99.90;;;;;;5072211;28;20200;-74
2022/03/06 11:06:41;;;;;;;5.40;2.60;;;3.40;99.90;;;;;;5054535;28;20226;-74
2022/03/06 11:09:14;;;;;;;5.57;2.90;;;3.40;99.90;;;;;;5054395;28;20270;-74
2022/03/06 11:11:43;;;;;;;5.47;3.03;;;3.50;99.90;;;;;;5054543;28;20648;-74
2022/03/06 11:14:11;;;;;;;3.97;2.70;;;3.60;99.90;;;;;;5054074;28;20181;-74
2022/03/06 11:16:38;;;;;;;4.07;2.63;;;3.60;99.90;;;;;;5054214;28;20177;-74
2022/03/06 11:19:05;;;;;;;4.93;2.63;;;3.70;99.90;;;;;;5053076;28;20666;-74
2022/03/06 11:21:35;;;;;;;4.60;2.87;;;3.70;99.90;;;;;;5054112;28;20198;-73
2022/03/06 11:24:10;;;;;;;3.87;2.70;;;3.60;99.90;;;;;;5070520;28;20176;-74
2022/03/06 11:26:57;;;;;;;4.23;3.00;;;3.70;99.90;;;;;;5068091;28;20638;-74
2022/03/06 11:29:28;;;;;;;3.43;2.60;;;3.80;99.90;;;;;;5068165;28;20179;-74
2022/03/06 11:31:57;;;;;;;5.10;3.53;;;3.90;99.90;;;;;;5092161;28;20182;-74
2022/03/06 11:34:24;;;;;;;4.87;3.63;;;4.00;99.90;;;;;;5074113;28;20180;-73
2022/03/06 11:36:51;;;;;;;5.70;3.63;;;3.90;99.90;;;;;;5073667;28;20296;-73
2022/03/06 11:39:32;;;;;;;4.57;3.90;;;3.90;99.90;;;;;;5073361;28;20172;-73
2022/03/06 11:42:00;;;;;;;5.03;3.47;;;3.90;99.90;;;;;;5073752;28;20195;-73
2022/03/06 11:44:35;;;;;;;5.27;3.57;;;3.80;99.90;;;;;;5073687;28;20213;-74
2022/03/06 11:47:21;;;;;;;4.40;3.23;;;3.80;99.90;;;;;;5108034;28;20194;-72
2022/03/06 11:50:02;;;;;;;5.20;3.47;;;3.80;99.90;;;;;;5091917;28;20180;-72
2022/03/06 11:52:31;;;;;;;4.97;3.43;;;3.90;99.90;;;;;;5092381;28;20177;-71
2022/03/06 11:54:58;;;;;;;4.40;3.37;;;4.00;99.90;;;;;;5073166;28;20187;-71
2022/03/06 11:57:35;;;;;;;5.43;4.00;;;4.00;99.90;;;;;;5083054;28;20204;-71
2022/03/06 12:00:17;;;;;;;4.43;3.50;;;4.00;99.90;;;;;;5062815;28;20180;-70
2022/03/06 12:02:48;;;;;;;5.40;3.97;;;4.10;99.90;;;;;;5053420;28;20191;-70
2022/03/06 12:05:16;;;;;;;5.60;4.10;;;4.10;99.90;;;;;;5053432;28;20262;-70
2022/03/06 12:07:42;;;;;;;4.97;3.90;;;4.10;99.90;;;;;;5086855;28;20189;-71
2022/03/06 12:10:12;;;;;;;4.83;4.17;;;4.10;99.90;;;;;;5053971;28;20182;-71
2022/03/06 12:12:38;;;;;;;6.47;4.63;;;4.10;99.90;;;;;;5086607;28;20172;-71
2022/03/06 12:15:25;;;;;;;5.90;4.27;;;4.10;99.90;;;;;;5072308;28;20747;-71
2022/03/06 12:17:50;;;;;;;5.37;4.80;;;4.10;99.90;;;;;;5034165;28;20201;-72
2022/03/06 12:20:25;;;;;;;7.57;5.63;;;4.20;99.90;;;;;;5051208;28;20174;-72
2022/03/06 12:23:02;;;;;;;5.87;4.70;;;4.30;99.90;;;;;;5066185;28;20188;-71
2022/03/06 12:25:33;;;;;;;6.37;5.17;;;4.40;99.90;;;;;;5068916;28;20242;-72
2022/03/06 12:28:05;;;;;;;6.87;5.03;;;4.40;99.90;;;;;;5064046;28;20201;-73
2022/03/06 12:30:32;;;;;;;5.27;4.77;;;4.40;99.90;;;;;;5073862;28;20234;-74
2022/03/06 12:33:24;;;;;;;4.87;4.30;;;4.40;99.90;;;;;;5073330;28;20265;-75
2022/03/06 12:35:50;;;;;;;6.07;4.00;;;4.40;99.90;;;;;;5070144;28;20166;-73
2022/03/06 12:38:24;;;;;;;5.40;4.00;;;4.40;99.90;;;;;;5072979;28;20207;-73
2022/03/06 12:40:50;;;;;;;7.50;3.80;;;4.30;99.90;;;;;;5090886;28;20162;-74
2022/03/06 12:43:19;;;;;;;4.90;4.40;;;4.30;99.90;;;;;;5073448;28;20212;-73
2022/03/06 12:45:46;;;;;;;5.10;3.90;;;4.30;99.90;;;;;;5091242;28;20175;-74
2022/03/06 12:48:11;;;;;;;9.40;4.30;;;4.30;99.90;;;;;;5073104;28;20193;-74
2022/03/06 12:50:42;;;;;;;5.03;3.93;;;4.40;99.90;;;;;;5073404;28;20178;-73
2022/03/06 12:53:08;;;;;;;4.60;3.17;;;4.40;99.90;;;;;;5095988;28;20193;-73